Time;durP1;ratioP1;P1;durP2;ratioP2;P2;SDS_P1;SDS_P2;PMS_P1;PMS_P2;Temp;Humidity;BMP_temperature;BMP_pressure;BME280_temperature;BME280_humidity;BME280_pressure;Samples;Min_cycle;Max_cycle;Signal;HPM_P1;HPM_P2
2023/06/28 00:00:24;;;;;;;1.85;1.10;;;;;;;25.58;40.93;101634.81;4935324;28;20044;-64
2023/06/28 00:02:50;;;;;;;6.30;1.30;;;;;;;25.59;40.68;101636.53;4912372;28;20170;-64
2023/06/28 00:05:15;;;;;;;1.65;1.27;;;;;;;25.57;40.67;101644.13;4947957;28;20102;-63
2023/06/28 00:07:41;;;;;;;3.17;1.38;;;;;;;25.55;40.60;101640.72;4949621;29;20510;-64
2023/06/28 00:10:06;;;;;;;1.73;1.27;;;;;;;25.53;40.58;101633.75;4955570;28;20034;-63
2023/06/28 00:12:33;;;;;;;3.30;1.30;;;;;;;25.51;41.02;101638.59;4954498;28;20054;-64
2023/06/28 00:14:59;;;;;;;5.35;1.58;;;;;;;25.48;41.12;101631.63;4938472;29;20031;-64
2023/06/28 00:17:28;;;;;;;1.50;1.00;;;;;;;25.43;40.87;101625.91;4938051;29;20063;-64
2023/06/28 00:19:58;;;;;;;2.50;1.48;;;;;;;25.35;41.86;101637.03;4953918;28;20121;-63
2023/06/28 00:22:29;;;;;;;4.22;1.42;;;;;;;25.30;41.81;101647.78;4938121;29;20036;-63
2023/06/28 00:24:54;;;;;;;3.97;1.67;;;;;;;25.27;41.71;101648.19;4953886;28;20072;-64
2023/06/28 00:27:20;;;;;;;4.38;0.93;;;;;;;25.26;42.08;101646.53;4937941;29;20106;-63
2023/06/28 00:29:45;;;;;;;2.85;1.15;;;;;;;25.26;42.10;101646.53;4970085;28;20038;-63
2023/06/28 00:32:11;;;;;;;8.55;1.10;;;;;;;25.23;41.82;101647.78;4954157;28;20410;-64
2023/06/28 00:34:36;;;;;;;2.75;1.15;;;;;;;25.23;41.92;101658.75;4938032;28;20042;-63
2023/06/28 00:37:01;;;;;;;2.00;0.93;;;;;;;25.19;42.15;101641.00;4953802;28;20043;-63
2023/06/28 00:39:27;;;;;;;4.72;1.33;;;;;;;25.19;41.82;101641.00;4937876;29;20443;-63
2023/06/28 00:41:52;;;;;;;2.78;1.40;;;;;;;25.18;42.36;101643.97;4937922;29;20036;-64
2023/06/28 00:44:17;;;;;;;2.83;1.00;;;;;;;25.17;42.29;101648.59;4922675;29;20118;-63
2023/06/28 00:46:43;;;;;;;3.60;1.25;;;;;;;25.16;42.19;101654.28;4937911;29;20063;-63
2023/06/28 00:49:08;;;;;;;1.42;0.90;;;;;;;25.13;41.83;101649.19;4954930;28;20070;-63
2023/06/28 00:51:35;;;;;;;2.03;1.10;;;;;;;25.11;42.60;101648.56;4955141;28;20499;-65
2023/06/28 00:54:01;;;;;;;4.65;1.35;;;;;;;25.09;42.30;101645.19;4955101;28;20067;-63
2023/06/28 00:56:26;;;;;;;7.00;1.70;;;;;;;25.10;42.67;101652.38;4937981;29;20031;-64
2023/06/28 00:58:52;;;;;;;2.83;1.20;;;;;;;25.08;42.34;101644.31;4938027;29;20043;-64
2023/06/28 01:01:17;;;;;;;4.30;1.17;;;;;;;25.08;42.07;101648.97;4937625;29;20050;-64
2023/06/28 01:03:43;;;;;;;2.70;1.08;;;;;;;25.08;42.39;101643.47;4921694;29;20035;-64
2023/06/28 01:06:12;;;;;;;2.22;1.00;;;;;;;25.05;42.15;101643.88;4936933;28;20463;-64
2023/06/28 01:08:39;;;;;;;2.08;0.90;;;;;;;25.04;42.76;101643.06;4938126;29;20115;-63
2023/06/28 01:11:04;;;;;;;3.35;1.02;;;;;;;25.02;42.48;101649.78;4953579;28;20082;-63
2023/06/28 01:13:30;;;;;;;6.32;1.70;;;;;;;25.02;42.82;101641.53;4953490;28;20035;-64
2023/06/28 01:15:55;;;;;;;1.42;1.10;;;;;;;25.00;43.02;101657.38;4937020;28;20126;-65
2023/06/28 01:18:23;;;;;;;4.05;1.23;;;;;;;24.96;43.02;101647.88;4921764;28;20031;-64
2023/06/28 01:20:49;;;;;;;5.63;1.23;;;;;;;24.93;43.00;101649.09;4937864;28;20183;-64
2023/06/28 01:23:15;;;;;;;1.48;1.10;;;;;;;24.91;42.99;101645.72;4953423;28;20062;-63
2023/06/28 01:25:42;;;;;;;2.50;1.30;;;;;;;24.88;43.23;101646.97;4954642;28;20511;-63
2023/06/28 01:28:08;;;;;;;6.28;1.30;;;;;;;24.86;43.47;101645.47;4923469;28;20054;-63
2023/06/28 01:30:37;;;;;;;5.22;1.40;;;;;;;24.85;43.47;101644.63;4937619;28;20407;-63
2023/06/28 01:33:02;;;;;;;4.68;1.10;;;;;;;24.84;43.17;101653.94;4938117;28;20037;-63
2023/06/28 01:35:29;;;;;;;4.32;0.90;;;;;;;24.85;43.47;101647.38;4953446;28;20027;-64
2023/06/28 01:37:55;;;;;;;4.20;1.10;;;;;;;24.85;43.47;101652.84;4937679;28;20202;-63
2023/06/28 01:40:21;;;;;;;5.07;1.27;;;;;;;24.87;43.32;101648.00;4937505;28;20492;-63
2023/06/28 01:42:46;;;;;;;3.22;1.20;;;;;;;24.84;42.96;101648.44;4937023;28;20034;-63
2023/06/28 01:45:12;;;;;;;8.10;1.10;;;;;;;24.84;43.26;101651.19;4937923;28;20479;-63
2023/06/28 01:47:38;;;;;;;4.47;1.52;;;;;;;24.85;43.36;101650.13;4955378;28;20440;-63
2023/06/28 01:50:05;;;;;;;6.57;1.33;;;;;;;24.84;43.25;101651.19;4937935;28;20049;-63
2023/06/28 01:52:30;;;;;;;4.35;1.10;;;;;;;24.84;42.96;101653.06;4937420;28;20122;-63
2023/06/28 01:54:56;;;;;;;2.83;1.30;;;;;;;24.77;43.00;101642.03;4953524;28;20196;-63
2023/06/28 01:57:21;;;;;;;2.13;1.73;;;;;;;24.81;42.66;101653.47;4954045;28;20570;-63
2023/06/28 01:59:47;;;;;;;2.20;1.65;;;;;;;24.79;43.05;101645.44;4953378;28;20081;-63
2023/06/28 02:02:12;;;;;;;4.65;1.55;;;;;;;24.77;43.67;101653.00;4953306;28;20062;-64
2023/06/28 02:04:38;;;;;;;5.50;1.08;;;;;;;24.74;42.89;101645.16;4953090;28;20542;-63
2023/06/28 02:07:03;;;;;;;4.28;1.10;;;;;;;24.77;43.12;101647.50;4936956;28;20028;-63
2023/06/28 02:09:29;;;;;;;2.35;1.17;;;;;;;24.77;43.54;101643.91;4953022;28;20095;-63
2023/06/28 02:11:54;;;;;;;1.30;1.10;;;;;;;24.75;44.05;101644.13;4952913;28;20035;-63
2023/06/28 02:14:19;;;;;;;7.30;1.58;;;;;;;24.76;44.01;101634.03;4954072;28;20391;-63
2023/06/28 02:16:45;;;;;;;1.70;1.10;;;;;;;24.75;43.34;101638.66;4937028;29;20086;-63
2023/06/28 02:19:15;;;;;;;2.67;2.08;;;;;;;24.74;43.21;101633.34;4955541;28;20035;-63
2023/06/28 02:21:40;;;;;;;2.92;1.00;;;;;;;24.72;44.23;101627.25;4957658;28;20054;-63
2023/06/28 02:24:08;;;;;;;3.22;1.45;;;;;;;24.71;43.60;101628.28;4972333;28;20036;-64
2023/06/28 02:26:34;;;;;;;2.90;1.40;;;;;;;24.72;44.15;101633.56;4956236;28;20035;-64
2023/06/28 02:29:00;;;;;;;2.63;1.17;;;;;;;24.70;44.01;101630.19;4956222;29;20031;-64
2023/06/28 02:31:25;;;;;;;7.88;1.30;;;;;;;24.71;44.07;101620.06;4939773;29;20372;-63
2023/06/28 02:33:50;;;;;;;5.05;1.60;;;;;;;24.69;44.41;101625.75;4956086;29;20031;-63
2023/06/28 02:36:16;;;;;;;3.60;1.10;;;;;;;24.68;43.75;101624.03;4956152;29;20023;-63
2023/06/28 02:38:41;;;;;;;4.10;1.27;;;;;;;24.64;44.33;101611.81;4956225;28;20045;-63
2023/06/28 02:41:07;;;;;;;5.82;1.20;;;;;;;24.65;44.61;101616.22;4955860;28;20038;-63
2023/06/28 02:43:32;;;;;;;3.20;1.02;;;;;;;24.64;44.37;101614.56;4956227;29;20121;-63
2023/06/28 02:45:57;;;;;;;4.57;1.40;;;;;;;24.66;43.96;101615.19;4957075;28;20023;-63
2023/06/28 02:48:23;;;;;;;5.60;1.10;;;;;;;24.67;43.94;101619.63;4957299;28;20127;-63
2023/06/28 02:50:48;;;;;;;8.20;1.45;;;;;;;24.65;44.55;101612.66;4956033;29;20066;-63
2023/06/28 02:53:14;;;;;;;4.97;1.88;;;;;;;24.65;43.85;101610.75;4939662;29;20028;-63
2023/06/28 02:55:39;;;;;;;1.83;1.30;;;;;;;24.66;44.26;101617.06;4955866;29;20058;-63
2023/06/28 02:58:05;;;;;;;3.28;1.42;;;;;;;24.66;44.68;101617.94;4955797;29;20078;-63
2023/06/28 03:00:30;;;;;;;5.65;1.27;;;;;;;24.65;44.56;101618.97;4955541;28;20547;-63
2023/06/28 03:02:56;;;;;;;5.05;1.55;;;;;;;24.67;44.38;101624.25;4939410;29;20608;-63
2023/06/28 03:05:21;;;;;;;4.45;1.67;;;;;;;24.66;44.71;101620.66;4923661;29;20028;-63
2023/06/28 03:07:47;;;;;;;3.30;1.10;;;;;;;24.65;44.69;101609.94;4955502;29;20507;-63
2023/06/28 03:10:12;;;;;;;5.57;1.48;;;;;;;24.64;44.58;101614.56;4936131;29;20032;-63
2023/06/28 03:12:38;;;;;;;4.55;1.45;;;;;;;24.67;44.05;101618.78;4957833;28;20118;-63
2023/06/28 03:15:03;;;;;;;2.13;1.27;;;;;;;24.63;44.83;101620.22;4939271;29;20065;-63
2023/06/28 03:17:29;;;;;;;6.32;2.10;;;;;;;24.60;45.02;101626.94;4971093;28;20035;-63
2023/06/28 03:19:54;;;;;;;5.50;1.67;;;;;;;24.55;44.59;101623.97;4955171;29;20078;-63
2023/06/28 03:22:19;;;;;;;6.90;1.48;;;;;;;24.54;45.38;101625.00;4923518;29;20040;-63
2023/06/28 03:24:45;;;;;;;7.03;1.40;;;;;;;24.52;44.99;101613.41;4955291;29;20407;-63
2023/06/28 03:27:10;;;;;;;4.55;1.50;;;;;;;24.51;44.65;101619.13;4923391;29;20035;-64
2023/06/28 03:29:35;;;;;;;2.72;1.83;;;;;;;24.51;44.85;101619.13;4938836;29;20125;-64
2023/06/28 03:32:01;;;;;;;5.43;1.75;;;;;;;24.53;45.10;101614.25;4956230;28;20559;-64
2023/06/28 03:34:27;;;;;;;6.22;1.50;;;;;;;24.52;44.79;101613.41;4938856;29;20035;-64
2023/06/28 03:36:53;;;;;;;2.45;1.52;;;;;;;24.53;44.50;101617.84;4956134;28;20042;-64
2023/06/28 03:39:18;;;;;;;6.50;1.77;;;;;;;24.52;44.93;101620.78;4954898;28;20058;-64
2023/06/28 03:41:44;;;;;;;3.17;1.38;;;;;;;24.52;44.80;101621.63;4938798;29;20070;-64
2023/06/28 03:44:09;;;;;;;9.15;2.65;;;;;;;24.51;44.89;101611.72;4938977;29;20035;-63
2023/06/28 03:46:34;;;;;;;3.60;1.25;;;;;;;24.52;45.33;101616.16;4954700;28;20039;-63
2023/06/28 03:49:00;;;;;;;4.15;1.63;;;;;;;24.52;45.17;101616.16;4954701;29;20114;-63
2023/06/28 03:51:25;;;;;;;7.53;1.65;;;;;;;24.51;44.88;101614.44;4954594;28;20032;-64
2023/06/28 03:53:50;;;;;;;1.98;1.48;;;;;;;24.46;44.90;101602.41;4954636;29;20032;-63
2023/06/28 03:56:16;;;;;;;4.20;1.55;;;;;;;24.47;45.54;101612.31;4970407;28;20043;-64
2023/06/28 03:58:41;;;;;;;4.88;1.42;;;;;;;24.47;44.80;101609.59;4938563;29;20062;-63
2023/06/28 04:01:06;;;;;;;4.93;1.60;;;;;;;24.46;45.40;101608.72;4954457;29;20044;-63
2023/06/28 04:03:32;;;;;;;6.53;1.85;;;;;;;24.46;45.34;101605.16;4935442;29;20041;-63
2023/06/28 04:05:57;;;;;;;3.63;1.92;;;;;;;24.47;45.37;101602.22;4958111;28;20135;-63
2023/06/28 04:08:26;;;;;;;5.03;1.38;;;;;;;24.50;44.91;101610.03;4955654;28;20515;-64
2023/06/28 04:10:55;;;;;;;2.72;1.45;;;;;;;24.51;44.96;101603.50;4937838;29;20039;-63
2023/06/28 04:13:22;;;;;;;3.25;1.38;;;;;;;24.50;45.60;101601.81;4954477;28;20455;-63
2023/06/28 04:15:47;;;;;;;2.30;1.13;;;;;;;24.51;45.45;101602.66;4922592;29;20030;-63
2023/06/28 04:18:12;;;;;;;6.88;2.42;;;;;;;24.50;45.51;101601.81;4954308;29;20081;-63
2023/06/28 04:20:38;;;;;;;3.38;1.63;;;;;;;24.50;45.29;101601.81;4955294;28;20062;-63
2023/06/28 04:23:03;;;;;;;5.00;2.22;;;;;;;24.54;44.97;101605.00;4953942;29;20174;-63
2023/06/28 04:25:28;;;;;;;3.40;1.65;;;;;;;24.56;45.38;101603.75;4938026;29;20071;-63
2023/06/28 04:27:54;;;;;;;11.63;2.13;;;;;;;24.57;45.36;101602.69;4954027;29;20039;-63
2023/06/28 04:30:21;;;;;;;4.00;1.63;;;;;;;24.62;45.28;101607.59;4934737;29;20508;-64
2023/06/28 04:32:47;;;;;;;4.68;1.65;;;;;;;24.66;45.38;101612.44;4943642;29;20044;-63
2023/06/28 04:35:13;;;;;;;7.45;1.77;;;;;;;24.68;45.30;101610.34;4953978;29;20492;-63
2023/06/28 04:37:40;;;;;;;6.53;2.42;;;;;;;24.72;44.73;101605.31;4935273;29;20042;-63
2023/06/28 04:40:06;;;;;;;5.05;1.85;;;;;;;24.74;45.05;101609.53;4944063;28;20092;-63
2023/06/28 04:42:31;;;;;;;2.80;1.30;;;;;;;24.76;45.08;101612.91;4953716;28;20049;-64
2023/06/28 04:44:59;;;;;;;5.63;1.92;;;;;;;24.77;45.24;101611.88;4937844;29;20035;-63
2023/06/28 04:47:26;;;;;;;6.47;1.90;;;;;;;24.81;45.17;101615.94;4938052;29;20547;-63
2023/06/28 04:49:52;;;;;;;4.38;1.50;;;;;;;24.83;45.01;101607.50;4969778;28;20032;-64
2023/06/28 04:52:19;;;;;;;3.63;1.50;;;;;;;24.86;44.88;101613.44;4953759;29;20044;-64
2023/06/28 04:54:48;;;;;;;4.35;1.35;;;;;;;24.85;45.20;101611.75;4969674;28;20043;-64
2023/06/28 04:57:17;;;;;;;5.07;1.38;;;;;;;24.87;44.98;101612.38;4953598;29;20047;-64
2023/06/28 04:59:42;;;;;;;7.05;1.67;;;;;;;24.87;44.90;101609.63;4953781;28;20043;-64
2023/06/28 05:02:09;;;;;;;5.22;2.38;;;;;;;24.92;44.73;101606.28;4969611;28;20038;-64
2023/06/28 05:04:35;;;;;;;6.30;2.05;;;;;;;24.92;45.11;101614.53;4953904;29;20094;-64
2023/06/28 05:07:07;;;;;;;7.60;1.63;;;;;;;24.96;44.88;101620.44;4922343;29;20035;-64
2023/06/28 05:09:34;;;;;;;3.05;2.20;;;;;;;24.94;45.07;101612.41;4922430;29;20115;-64
2023/06/28 05:12:01;;;;;;;3.45;1.83;;;;;;;24.97;45.23;101614.75;4938071;29;20055;-64
2023/06/28 05:14:28;;;;;;;3.65;1.98;;;;;;;24.98;45.04;101610.13;4953786;29;20106;-64
2023/06/28 05:16:53;;;;;;;7.55;1.80;;;;;;;25.00;44.71;101611.59;4922176;29;20094;-64
2023/06/28 05:19:20;;;;;;;5.35;1.60;;;;;;;25.01;44.89;101609.72;4953728;29;20040;-64
2023/06/28 05:21:46;;;;;;;3.00;1.45;;;;;;;25.03;45.08;101607.59;4922245;29;20039;-64
2023/06/28 05:24:11;;;;;;;4.90;2.10;;;;;;;25.09;44.83;101618.59;4937698;29;20059;-64
2023/06/28 05:26:36;;;;;;;6.72;2.20;;;;;;;25.08;45.05;101607.81;4937659;29;20577;-64
2023/06/28 05:29:02;;;;;;;2.67;1.48;;;;;;;25.10;44.58;101608.50;4953756;29;20035;-63
2023/06/28 05:31:27;;;;;;;6.25;2.00;;;;;;;25.08;45.25;101611.41;4956173;28;20127;-63
2023/06/28 05:33:52;;;;;;;7.82;1.98;;;;;;;25.09;45.16;101601.31;4938519;29;20495;-60
2023/06/28 05:36:22;;;;;;;5.28;1.77;;;;;;;25.08;45.58;101599.59;4954735;29;20054;-60
2023/06/28 05:38:47;;;;;;;4.15;1.38;;;;;;;25.03;44.98;101596.63;4954610;29;20042;-60
2023/06/28 05:41:14;;;;;;;4.18;1.80;;;;;;;25.02;45.37;101603.16;4956126;28;20122;-64
2023/06/28 05:43:42;;;;;;;2.25;1.52;;;;;;;25.02;45.28;101601.25;4970669;28;20034;-64
2023/06/28 05:46:07;;;;;;;3.17;1.73;;;;;;;25.04;45.66;101609.31;4969333;28;20036;-64
2023/06/28 05:48:33;;;;;;;6.82;1.75;;;;;;;25.01;45.31;101605.06;4953319;29;20542;-64
2023/06/28 05:50:58;;;;;;;4.45;1.65;;;;;;;25.03;45.61;101605.72;4953594;29;20491;-63
2023/06/28 05:53:24;;;;;;;3.25;1.73;;;;;;;25.04;45.60;101596.44;4955636;28;20513;-63
2023/06/28 05:55:49;;;;;;;8.82;1.65;;;;;;;25.04;45.25;101596.44;4957231;28;20035;-63
2023/06/28 05:58:15;;;;;;;6.93;2.03;;;;;;;25.07;45.08;101606.16;4925109;29;20098;-64
2023/06/28 06:00:41;;;;;;;3.15;1.50;;;;;;;25.06;45.38;101594.34;4940791;29;20040;-63
2023/06/28 06:03:07;;;;;;;2.80;1.70;;;;;;;25.09;45.67;101593.06;4941229;29;20039;-64
2023/06/28 06:05:32;;;;;;;3.53;1.42;;;;;;;25.09;45.22;101591.19;4925109;29;20036;-64
2023/06/28 06:07:58;;;;;;;3.42;1.45;;;;;;;25.11;45.38;101588.22;4956746;29;20525;-64
2023/06/28 06:10:23;;;;;;;7.72;1.42;;;;;;;25.13;45.19;101597.09;4957886;28;20090;-64
2023/06/28 06:12:49;;;;;;;8.50;1.50;;;;;;;25.14;45.12;101587.81;4956572;29;20126;-64
2023/06/28 06:15:14;;;;;;;3.42;1.45;;;;;;;25.18;45.17;101578.97;4957722;28;20039;-64
2023/06/28 06:17:40;;;;;;;7.05;1.90;;;;;;;25.20;45.59;101581.50;4956275;29;20499;-63
2023/06/28 06:20:06;;;;;;;4.30;1.70;;;;;;;25.15;45.36;101573.91;4972261;28;20115;-63
2023/06/28 06:22:31;;;;;;;8.95;1.65;;;;;;;25.25;45.40;101579.00;4956393;28;20126;-64
2023/06/28 06:24:57;;;;;;;4.32;1.60;;;;;;;25.27;44.57;101571.38;4956294;29;20635;-63
2023/06/28 06:27:22;;;;;;;4.65;1.35;;;;;;;25.28;44.78;101573.94;4972396;28;20035;-64
2023/06/28 06:29:48;;;;;;;6.35;1.73;;;;;;;25.34;44.96;101570.38;4924390;29;20035;-63
2023/06/28 06:32:13;;;;;;;6.25;2.08;;;;;;;25.36;45.00;101571.00;4957469;28;20039;-64
2023/06/28 06:34:39;;;;;;;4.68;1.35;;;;;;;25.40;44.46;101580.50;4940017;29;20075;-64
2023/06/28 06:37:05;;;;;;;4.18;1.35;;;;;;;25.40;44.29;101572.25;4957242;28;20093;-63
2023/06/28 06:39:30;;;;;;;3.88;1.98;;;;;;;25.40;44.52;101572.25;4955972;29;20031;-63
2023/06/28 06:41:55;;;;;;;6.05;1.58;;;;;;;25.44;44.20;101583.66;4940097;29;20513;-63
2023/06/28 06:44:21;;;;;;;2.95;1.73;;;;;;;25.46;44.06;101587.06;4957359;28;20119;-63
2023/06/28 06:46:46;;;;;;;6.80;2.80;;;;;;;25.45;44.36;101582.63;4955823;29;20046;-64
2023/06/28 06:49:12;;;;;;;4.85;1.88;;;;;;;25.50;44.49;101593.00;4936650;29;20038;-63
2023/06/28 06:51:37;;;;;;;11.43;1.60;;;;;;;25.51;44.04;101583.72;4954162;29;20104;-63
2023/06/28 06:54:03;;;;;;;4.00;1.25;;;;;;;25.53;44.05;101587.94;4955602;29;20037;-63
2023/06/28 06:56:28;;;;;;;2.28;1.55;;;;;;;25.56;43.91;101592.19;4956962;28;20102;-64
2023/06/28 06:58:54;;;;;;;7.00;1.35;;;;;;;25.56;43.96;101586.69;4955666;29;20071;-63
2023/06/28 07:01:19;;;;;;;6.93;2.08;;;;;;;25.55;43.77;101591.31;4955584;28;20051;-63
2023/06/28 07:03:45;;;;;;;2.03;1.63;;;;;;;25.53;43.98;101593.44;4955091;28;20054;-64
2023/06/28 07:06:11;;;;;;;6.40;1.75;;;;;;;25.55;43.70;101590.47;4956093;28;20043;-64
2023/06/28 07:08:36;;;;;;;6.85;1.60;;;;;;;25.54;43.55;101597.03;4955619;28;20039;-63
2023/06/28 07:11:02;;;;;;;5.13;1.75;;;;;;;25.51;43.56;101590.06;4955695;29;20031;-64
2023/06/28 07:13:27;;;;;;;7.30;2.08;;;;;;;25.50;43.54;101593.84;4939933;29;20036;-64
2023/06/28 07:15:53;;;;;;;5.22;1.60;;;;;;;25.52;43.45;101591.75;4957214;28;20035;-63
2023/06/28 07:18:18;;;;;;;6.85;1.70;;;;;;;25.53;43.71;101592.59;4936317;29;20050;-64
2023/06/28 07:20:43;;;;;;;4.60;1.90;;;;;;;25.53;43.73;101587.94;4954716;29;20044;-64
2023/06/28 07:23:09;;;;;;;12.30;1.92;;;;;;;25.55;43.46;101585.84;4955561;29;20031;-64
2023/06/28 07:25:34;;;;;;;6.00;2.38;;;;;;;25.59;43.25;101592.59;4939592;29;20514;-64
2023/06/28 07:28:00;;;;;;;5.55;1.80;;;;;;;25.60;43.29;101588.78;4955547;29;20058;-64
2023/06/28 07:30:28;;;;;;;7.95;1.83;;;;;;;25.61;43.11;101585.00;4955444;28;20414;-65
2023/06/28 07:32:53;;;;;;;5.95;2.00;;;;;;;25.61;43.72;101585.00;4955303;29;20039;-65
2023/06/28 07:35:19;;;;;;;4.25;1.38;;;;;;;25.62;43.28;101592.19;4956466;28;20036;-65
2023/06/28 07:37:44;;;;;;;4.28;1.77;;;;;;;25.65;43.71;101591.78;4939437;29;20067;-63
2023/06/28 07:40:10;;;;;;;5.15;1.80;;;;;;;25.68;43.36;101599.59;4971318;28;20415;-64
2023/06/28 07:42:37;;;;;;;9.35;1.75;;;;;;;25.67;43.62;101595.16;4954943;28;20115;-66
2023/06/28 07:45:03;;;;;;;24.60;2.38;;;;;;;25.63;43.41;101593.88;4956286;28;20030;-65
2023/06/28 07:47:29;;;;;;;4.60;2.47;;;;;;;25.65;43.45;101596.41;4939313;28;20027;-65
2023/06/28 07:49:54;;;;;;;4.93;1.77;;;;;;;25.67;43.39;101610.78;4939109;28;20058;-65
2023/06/28 07:52:19;;;;;;;5.88;1.80;;;;;;;25.67;43.87;101603.38;4955070;28;20047;-65
2023/06/28 07:54:45;;;;;;;5.45;1.60;;;;;;;25.62;43.34;101583.13;4956238;28;20039;-64
2023/06/28 07:57:11;;;;;;;6.60;1.77;;;;;;;25.72;43.38;101602.75;4938973;28;20469;-65
2023/06/28 07:59:37;;;;;;;7.53;1.73;;;;;;;25.73;43.30;101594.31;4956527;28;20035;-65
2023/06/28 08:02:03;;;;;;;5.90;1.83;;;;;;;25.81;43.13;101602.34;4956447;28;20031;-65
2023/06/28 08:04:28;;;;;;;8.32;1.90;;;;;;;25.87;43.55;101601.50;4937821;28;20122;-64
2023/06/28 08:06:53;;;;;;;5.38;2.42;;;;;;;25.94;42.76;101594.09;4938534;28;20031;-65
2023/06/28 08:09:19;;;;;;;5.28;1.63;;;;;;;25.96;42.66;101585.69;4938865;28;20053;-65
2023/06/28 08:11:44;;;;;;;3.92;1.83;;;;;;;26.07;42.53;101601.50;4954652;28;20031;-65
2023/06/28 08:14:10;;;;;;;4.78;2.42;;;;;;;26.18;42.29;101602.81;4954474;28;20032;-64
2023/06/28 08:16:35;;;;;;;4.43;1.70;;;;;;;26.27;42.19;101596.84;4954356;28;20023;-65
2023/06/28 08:19:00;;;;;;;5.82;1.52;;;;;;;26.38;42.55;101603.63;4954517;28;20074;-64
2023/06/28 08:21:26;;;;;;;4.32;1.50;;;;;;;26.44;41.82;101611.00;4938510;28;20154;-65
2023/06/28 08:23:52;;;;;;;4.75;1.67;;;;;;;26.52;42.01;101605.31;4922985;28;20042;-64
2023/06/28 08:26:18;;;;;;;8.48;1.42;;;;;;;26.57;42.04;101603.59;4954686;28;20073;-65
2023/06/28 08:28:43;;;;;;;4.30;1.77;;;;;;;26.63;42.05;101608.19;4954475;28;20555;-65
2023/06/28 08:31:09;;;;;;;4.35;1.83;;;;;;;26.67;41.71;101602.28;4938499;28;20032;-65
2023/06/28 08:33:34;;;;;;;7.70;1.80;;;;;;;26.68;41.36;101598.47;4922287;28;20039;-64
2023/06/28 08:35:59;;;;;;;6.50;1.73;;;;;;;26.71;41.51;101604.41;4953888;28;20119;-65
2023/06/28 08:38:25;;;;;;;3.40;1.48;;;;;;;26.72;41.75;101605.25;4937806;28;20491;-64
2023/06/28 08:40:51;;;;;;;6.03;1.85;;;;;;;26.74;41.55;101603.97;4954812;28;20058;-63
2023/06/28 08:43:19;;;;;;;6.22;1.77;;;;;;;26.78;41.79;101613.50;4953904;28;20023;-64
2023/06/28 08:45:44;;;;;;;4.75;1.35;;;;;;;26.82;41.47;101611.16;4938077;28;20041;-63
2023/06/28 08:48:11;;;;;;;3.47;1.60;;;;;;;26.82;41.35;101611.16;4955022;28;20118;-63
2023/06/28 08:50:43;;;;;;;5.03;2.03;;;;;;;26.83;41.98;101618.38;4953836;28;20047;-63
2023/06/28 08:53:11;;;;;;;4.23;1.77;;;;;;;26.81;41.13;101610.31;4953692;28;20046;-63
2023/06/28 08:55:37;;;;;;;6.50;1.48;;;;;;;26.80;41.21;101603.13;4937586;29;20103;-63
2023/06/28 08:58:05;;;;;;;8.70;1.70;;;;;;;26.88;41.58;101611.16;4921827;29;20035;-63
2023/06/28 09:00:30;;;;;;;5.25;1.75;;;;;;;26.97;40.91;101608.97;4953920;28;20031;-63
2023/06/28 09:02:57;;;;;;;7.32;1.98;;;;;;;27.03;41.38;101603.44;4953081;28;20384;-63
2023/06/28 09:05:22;;;;;;;6.15;2.30;;;;;;;27.12;41.12;101612.31;4934783;28;20110;-63
2023/06/28 09:07:50;;;;;;;5.28;2.05;;;;;;;27.19;40.81;101605.69;4923736;29;20498;-63
2023/06/28 09:10:15;;;;;;;11.27;2.97;;;;;;;27.29;41.30;101593.38;4948573;28;20028;-64
2023/06/28 09:12:41;;;;;;;9.02;1.85;;;;;;;27.35;40.27;101612.63;4934870;28;20412;-64
2023/06/28 09:15:07;;;;;;;8.40;2.25;;;;;;;27.37;39.92;101604.13;4934657;28;20055;-64
2023/06/28 09:17:32;;;;;;;13.20;1.60;;;;;;;27.44;40.83;101605.00;4934773;28;20032;-64
2023/06/28 09:20:04;;;;;;;5.22;1.75;;;;;;;27.53;40.64;101601.72;4934913;28;20040;-65
2023/06/28 09:22:31;;;;;;;4.47;1.55;;;;;;;27.69;40.78;101597.63;4934520;28;20094;-63
2023/06/28 09:25:02;;;;;;;5.65;1.85;;;;;;;27.88;40.50;101596.63;4918970;28;20495;-64
2023/06/28 09:27:29;;;;;;;5.65;1.77;;;;;;;28.08;40.08;101593.72;4919129;29;20031;-64
2023/06/28 09:30:02;;;;;;;6.22;1.98;;;;;;;28.31;39.90;101589.25;4938643;28;20114;-64
2023/06/28 09:32:51;;;;;;;3.30;1.48;;;;;;;28.65;38.93;101589.78;4940024;28;20038;-63
2023/06/28 09:35:18;;;;;;;7.20;1.80;;;;;;;28.83;38.56;101592.53;4923065;28;20050;-63
2023/06/28 09:37:50;;;;;;;12.88;2.35;;;;;;;28.89;38.79;101600.72;4938167;28;20109;-64
2023/06/28 09:40:17;;;;;;;4.25;1.73;;;;;;;28.92;38.25;101593.94;4937696;28;20094;-64
2023/06/28 09:42:49;;;;;;;5.90;2.38;;;;;;;28.90;38.50;101596.06;4937900;28;20109;-63
2023/06/28 09:45:35;;;;;;;6.90;1.80;;;;;;;28.96;38.30;101588.78;4906831;29;20115;-63
2023/06/28 09:48:02;;;;;;;4.18;2.38;;;;;;;29.08;38.76;101595.19;4907957;29;20028;-64
2023/06/28 09:50:37;;;;;;;11.63;2.58;;;;;;;29.18;37.79;101589.97;4937751;28;20028;-63
2023/06/28 09:53:13;;;;;;;8.20;2.72;;;;;;;29.24;37.89;101592.66;4938839;28;20038;-63
2023/06/28 09:55:40;;;;;;;5.80;2.45;;;;;;;29.37;37.70;101595.25;4957610;28;20039;-63
2023/06/28 09:58:13;;;;;;;8.77;3.25;;;;;;;29.55;37.62;101588.81;4956759;28;20026;-63
2023/06/28 10:00:38;;;;;;;;;;;;;;;29.73;37.95;101601.72;4941497;28;20034;-63
2023/06/28 10:03:11;;;;;;;5.78;2.15;;;;;;;29.78;37.68;101599.09;4956913;28;19917;-63
2023/06/28 10:05:38;;;;;;;7.90;2.20;;;;;;;29.75;37.61;101594.03;4940918;29;20113;-63
2023/06/28 10:08:06;;;;;;;7.43;2.85;;;;;;;29.69;37.87;101595.84;4957940;28;20047;-63
2023/06/28 10:10:34;;;;;;;5.25;2.00;;;;;;;29.59;37.59;101591.97;4957110;28;20059;-64
2023/06/28 10:13:01;;;;;;;4.13;2.17;;;;;;;29.55;37.91;101587.97;4956896;28;20102;-64
2023/06/28 10:15:29;;;;;;;5.95;1.70;;;;;;;29.51;37.50;101587.59;4940386;29;20035;-63
2023/06/28 10:17:54;;;;;;;5.22;1.58;;;;;;;29.55;37.40;101582.44;4940484;29;20066;-63
2023/06/28 10:20:20;;;;;;;7.63;2.17;;;;;;;29.59;37.69;101589.19;4924302;29;20078;-63
2023/06/28 10:22:45;;;;;;;5.45;1.50;;;;;;;29.61;37.42;101587.03;4956462;28;20035;-63
2023/06/28 10:25:11;;;;;;;3.72;1.67;;;;;;;29.63;36.73;101591.25;4972322;28;20044;-63
2023/06/28 10:27:39;;;;;;;7.78;1.92;;;;;;;29.70;37.27;101589.25;4956299;28;20071;-63
2023/06/28 10:30:05;;;;;;;6.40;1.73;;;;;;;29.74;37.00;101597.88;4956304;28;20055;-63
2023/06/28 10:32:31;;;;;;;7.32;2.88;;;;;;;29.72;36.97;101589.84;4956372;28;20039;-63
2023/06/28 10:34:57;;;;;;;5.53;1.48;;;;;;;29.69;36.96;101586.69;4940147;29;20043;-63
2023/06/28 10:37:23;;;;;;;8.55;1.98;;;;;;;29.68;36.76;101588.59;4956349;28;20046;-63
2023/06/28 10:39:53;;;;;;;4.93;1.85;;;;;;;29.76;36.83;101585.50;4955803;28;20035;-64
2023/06/28 10:42:21;;;;;;;7.57;1.95;;;;;;;29.87;36.15;101576.41;4956115;28;20038;-63
2023/06/28 10:44:54;;;;;;;8.15;1.80;;;;;;;30.11;36.13;101577.31;4956041;28;20035;-64
2023/06/28 10:47:19;;;;;;;3.25;1.80;;;;;;;30.35;35.81;101570.69;4956171;28;20035;-64
2023/06/28 10:50:15;;;;;;;4.00;1.60;;;;;;;30.62;35.94;101572.97;4955934;28;20042;-64
2023/06/28 10:52:48;;;;;;;7.47;2.03;;;;;;;30.88;35.27;101572.41;4956422;28;20042;-63
2023/06/28 10:55:34;;;;;;;7.63;1.80;;;;;;;31.15;34.43;101576.34;4924440;29;20050;-63
2023/06/28 10:58:11;;;;;;;12.07;2.70;;;;;;;31.36;34.74;101564.56;4955982;28;20102;-63
2023/06/28 11:00:36;;;;;;;6.53;1.95;;;;;;;31.58;34.79;101564.72;4955901;28;20135;-63
2023/06/28 11:03:03;;;;;;;3.45;1.55;;;;;;;31.79;34.61;101571.47;4955742;28;20475;-64
2023/06/28 11:05:44;;;;;;;9.63;2.17;;;;;;;32.06;33.64;101565.03;4939902;29;20035;-63
2023/06/28 11:08:14;;;;;;;4.03;1.70;;;;;;;32.25;33.91;101557.25;4946308;28;20046;-63
2023/06/28 11:10:41;;;;;;;5.82;1.50;;;;;;;32.39;34.06;101547.47;4938530;28;20027;-64
2023/06/28 11:13:11;;;;;;;8.27;1.92;;;;;;;32.66;32.78;101554.00;4923814;28;20023;-65
2023/06/28 11:15:42;;;;;;;7.40;1.88;;;;;;;32.81;32.23;101548.63;4939506;28;20043;-64
2023/06/28 11:18:12;;;;;;;9.38;1.60;;;;;;;32.90;32.54;101550.97;4955598;28;20042;-63
2023/06/28 11:20:48;;;;;;;6.28;2.00;;;;;;;32.83;32.31;101554.75;4939324;29;20043;-63